sensor_id;sensor_type;location;lat;lon;timestamp;pressure;altitude;pressure_sealevel;temperature;humidity
20793;BME280;10556;-33.662;151.094;2023-11-22T00:01:01;99828.31;;;24.08;100.00
20793;BME280;10556;-33.662;151.094;2023-11-22T00:06:03;99832.66;;;24.17;100.00
20793;BME280;10556;-33.662;151.094;2023-11-22T00:11:08;99834.22;;;24.28;100.00
20793;BME280;10556;-33.662;151.094;2023-11-22T00:16:10;99836.22;;;24.34;100.00
20793;BME280;10556;-33.662;151.094;2023-11-22T00:21:13;99819.00;;;24.41;100.00
20793;BME280;10556;-33.662;151.094;2023-11-22T00:26:17;99815.38;;;24.60;100.00
20793;BME280;10556;-33.662;151.094;2023-11-22T00:31:20;99817.19;;;24.93;100.00
20793;BME280;10556;-33.662;151.094;2023-11-22T00:36:22;99807.19;;;25.23;100.00
20793;BME280;10556;-33.662;151.094;2023-11-22T00:41:31;99798.59;;;25.46;100.00
20793;BME280;10556;-33.662;151.094;2023-11-22T00:46:33;99789.81;;;25.72;100.00
20793;BME280;10556;-33.662;151.094;2023-11-22T00:51:35;99777.75;;;25.87;100.00
20793;BME280;10556;-33.662;151.094;2023-11-22T00:56:40;99774.47;;;26.01;100.00
20793;BME280;10556;-33.662;151.094;2023-11-22T01:01:42;99775.28;;;26.18;100.00
20793;BME280;10556;-33.662;151.094;2023-11-22T01:06:45;99771.31;;;26.38;100.00
20793;BME280;10556;-33.662;151.094;2023-11-22T01:11:49;99776.69;;;26.44;100.00
20793;BME280;10556;-33.662;151.094;2023-11-22T01:16:51;99784.50;;;26.53;100.00
20793;BME280;10556;-33.662;151.094;2023-11-22T01:21:54;99774.97;;;26.76;100.00
20793;BME280;10556;-33.662;151.094;2023-11-22T01:26:58;99779.84;;;26.87;100.00
20793;BME280;10556;-33.662;151.094;2023-11-22T01:32:01;99766.63;;;26.72;100.00
20793;BME280;10556;-33.662;151.094;2023-11-22T01:37:04;99758.50;;;26.59;100.00
20793;BME280;10556;-33.662;151.094;2023-11-22T01:42:08;99745.38;;;26.75;100.00
20793;BME280;10556;-33.662;151.094;2023-11-22T01:47:11;99730.56;;;26.99;100.00
20793;BME280;10556;-33.662;151.094;2023-11-22T01:52:14;99731.78;;;27.11;100.00
20793;BME280;10556;-33.662;151.094;2023-11-22T01:57:18;99718.47;;;27.20;100.00
20793;BME280;10556;-33.662;151.094;2023-11-22T02:02:22;99709.72;;;27.36;100.00
20793;BME280;10556;-33.662;151.094;2023-11-22T02:07:24;99715.03;;;27.51;100.00
20793;BME280;10556;-33.662;151.094;2023-11-22T02:12:31;99708.19;;;27.64;100.00
20793;BME280;10556;-33.662;151.094;2023-11-22T02:17:33;99699.91;;;27.75;100.00
20793;BME280;10556;-33.662;151.094;2023-11-22T02:22:43;99687.63;;;27.76;100.00
20793;BME280;10556;-33.662;151.094;2023-11-22T02:27:47;99694.31;;;27.79;100.00
20793;BME280;10556;-33.662;151.094;2023-11-22T02:32:50;99682.19;;;27.77;100.00
20793;BME280;10556;-33.662;151.094;2023-11-22T02:37:52;99674.44;;;27.99;100.00
20793;BME280;10556;-33.662;151.094;2023-11-22T02:42:57;99680.34;;;28.15;100.00
20793;BME280;10556;-33.662;151.094;2023-11-22T02:47:59;99685.78;;;28.29;100.00
20793;BME280;10556;-33.662;151.094;2023-11-22T02:53:02;99698.16;;;28.05;94.79
20793;BME280;10556;-33.662;151.094;2023-11-22T02:58:06;99696.94;;;27.79;100.00
20793;BME280;10556;-33.662;151.094;2023-11-22T03:03:08;99692.59;;;27.71;100.00
20793;BME280;10556;-33.662;151.094;2023-11-22T03:08:11;99676.06;;;27.85;100.00
20793;BME280;10556;-33.662;151.094;2023-11-22T03:13:15;99672.81;;;27.83;100.00
20793;BME280;10556;-33.662;151.094;2023-11-22T03:18:17;99671.13;;;27.90;100.00
20793;BME280;10556;-33.662;151.094;2023-11-22T03:23:20;99671.28;;;28.03;100.00
20793;BME280;10556;-33.662;151.094;2023-11-22T03:28:24;99669.75;;;27.94;100.00
20793;BME280;10556;-33.662;151.094;2023-11-22T03:33:27;99665.50;;;27.79;100.00
20793;BME280;10556;-33.662;151.094;2023-11-22T03:38:29;99670.00;;;27.70;100.00
20793;BME280;10556;-33.662;151.094;2023-11-22T03:43:33;99660.09;;;27.80;100.00
20793;BME280;10556;-33.662;151.094;2023-11-22T03:48:36;99654.75;;;28.03;100.00
20793;BME280;10556;-33.662;151.094;2023-11-22T03:53:38;99656.41;;;28.18;100.00
20793;BME280;10556;-33.662;151.094;2023-11-22T03:58:43;99665.16;;;28.26;100.00
20793;BME280;10556;-33.662;151.094;2023-11-22T04:03:45;99661.47;;;28.20;100.00
20793;BME280;10556;-33.662;151.094;2023-11-22T04:08:48;99649.81;;;28.23;100.00
20793;BME280;10556;-33.662;151.094;2023-11-22T04:13:52;99645.69;;;28.35;100.00
20793;BME280;10556;-33.662;151.094;2023-11-22T04:18:55;99656.13;;;28.13;100.00
20793;BME280;10556;-33.662;151.094;2023-11-22T04:23:57;99645.59;;;27.55;100.00
20793;BME280;10556;-33.662;151.094;2023-11-22T04:29:01;99650.63;;;27.19;100.00
20793;BME280;10556;-33.662;151.094;2023-11-22T04:34:04;99665.34;;;26.97;100.00
20793;BME280;10556;-33.662;151.094;2023-11-22T04:39:06;99646.69;;;26.69;100.00
20793;BME280;10556;-33.662;151.094;2023-11-22T04:44:11;99647.41;;;26.55;100.00
20793;BME280;10556;-33.662;151.094;2023-11-22T04:49:13;99649.94;;;26.40;100.00
20793;BME280;10556;-33.662;151.094;2023-11-22T04:54:16;99642.34;;;26.23;100.00
20793;BME280;10556;-33.662;151.094;2023-11-22T04:59:20;99643.50;;;26.12;100.00
20793;BME280;10556;-33.662;151.094;2023-11-22T05:04:22;99643.53;;;25.96;100.00
20793;BME280;10556;-33.662;151.094;2023-11-22T05:09:25;99643.09;;;25.84;100.00
20793;BME280;10556;-33.662;151.094;2023-11-22T05:14:29;99651.75;;;25.77;100.00
20793;BME280;10556;-33.662;151.094;2023-11-22T05:19:32;99654.88;;;25.80;100.00
20793;BME280;10556;-33.662;151.094;2023-11-22T05:24:34;99653.56;;;25.68;100.00
20793;BME280;10556;-33.662;151.094;2023-11-22T05:29:38;99643.09;;;25.52;100.00
20793;BME280;10556;-33.662;151.094;2023-11-22T05:34:41;99651.44;;;25.47;100.00
20793;BME280;10556;-33.662;151.094;2023-11-22T05:39:43;99640.97;;;25.47;100.00
20793;BME280;10556;-33.662;151.094;2023-11-22T05:44:47;99642.94;;;25.53;100.00
20793;BME280;10556;-33.662;151.094;2023-11-22T05:49:50;99634.31;;;25.69;100.00
20793;BME280;10556;-33.662;151.094;2023-11-22T05:54:52;99642.91;;;25.86;100.00
20793;BME280;10556;-33.662;151.094;2023-11-22T05:59:56;99640.09;;;25.95;100.00
20793;BME280;10556;-33.662;151.094;2023-11-22T06:04:59;99634.38;;;26.00;100.00
20793;BME280;10556;-33.662;151.094;2023-11-22T06:10:01;99642.06;;;26.01;100.00
20793;BME280;10556;-33.662;151.094;2023-11-22T06:15:06;99650.09;;;25.92;100.00
20793;BME280;10556;-33.662;151.094;2023-11-22T06:20:10;99658.13;;;25.74;100.00
20793;BME280;10556;-33.662;151.094;2023-11-22T06:25:12;99673.31;;;25.54;100.00
20793;BME280;10556;-33.662;151.094;2023-11-22T06:30:17;99670.69;;;25.38;100.00
20793;BME280;10556;-33.662;151.094;2023-11-22T06:35:19;99679.81;;;25.26;100.00
20793;BME280;10556;-33.662;151.094;2023-11-22T06:40:22;99684.72;;;25.13;100.00
20793;BME280;10556;-33.662;151.094;2023-11-22T06:45:26;99686.94;;;25.00;100.00
20793;BME280;10556;-33.662;151.094;2023-11-22T06:50:28;99691.31;;;24.83;100.00
20793;BME280;10556;-33.662;151.094;2023-11-22T06:55:31;99696.47;;;24.67;100.00
20793;BME280;10556;-33.662;151.094;2023-11-22T07:00:35;99689.59;;;24.58;100.00
20793;BME280;10556;-33.662;151.094;2023-11-22T07:05:38;99687.44;;;24.45;100.00
20793;BME280;10556;-33.662;151.094;2023-11-22T07:10:40;99687.84;;;24.32;100.00
20793;BME280;10556;-33.662;151.094;2023-11-22T07:15:45;99697.56;;;24.22;100.00
20793;BME280;10556;-33.662;151.094;2023-11-22T07:20:47;99702.34;;;24.09;100.00
20793;BME280;10556;-33.662;151.094;2023-11-22T07:25:50;99706.66;;;23.93;100.00
20793;BME280;10556;-33.662;151.094;2023-11-22T07:30:54;99711.44;;;23.79;100.00
20793;BME280;10556;-33.662;151.094;2023-11-22T07:35:56;99707.78;;;23.64;100.00
20793;BME280;10556;-33.662;151.094;2023-11-22T07:40:59;99712.25;;;23.54;100.00
20793;BME280;10556;-33.662;151.094;2023-11-22T07:46:05;99727.75;;;23.46;100.00
20793;BME280;10556;-33.662;151.094;2023-11-22T07:51:08;99729.97;;;23.23;100.00
20793;BME280;10556;-33.662;151.094;2023-11-22T07:56:11;99740.94;;;23.17;100.00
20793;BME280;10556;-33.662;151.094;2023-11-22T08:01:15;99751.72;;;23.04;100.00
20793;BME280;10556;-33.662;151.094;2023-11-22T08:06:17;99752.69;;;23.03;100.00
20793;BME280;10556;-33.662;151.094;2023-11-22T08:11:20;99753.13;;;22.99;100.00
20793;BME280;10556;-33.662;151.094;2023-11-22T08:16:24;99760.91;;;22.99;100.00
20793;BME280;10556;-33.662;151.094;2023-11-22T08:21:27;99780.22;;;22.96;100.00
20793;BME280;10556;-33.662;151.094;2023-11-22T08:26:29;99785.56;;;22.95;100.00
20793;BME280;10556;-33.662;151.094;2023-11-22T08:31:33;99785.19;;;22.90;100.00
20793;BME280;10556;-33.662;151.094;2023-11-22T08:36:36;99784.78;;;22.85;100.00
20793;BME280;10556;-33.662;151.094;2023-11-22T08:41:38;99783.31;;;22.82;100.00
20793;BME280;10556;-33.662;151.094;2023-11-22T08:46:43;99787.81;;;22.80;100.00
20793;BME280;10556;-33.662;151.094;2023-11-22T08:51:45;99789.91;;;22.77;100.00
20793;BME280;10556;-33.662;151.094;2023-11-22T08:56:47;99805.22;;;22.70;100.00
20793;BME280;10556;-33.662;151.094;2023-11-22T09:01:52;99808.22;;;22.66;100.00
20793;BME280;10556;-33.662;151.094;2023-11-22T09:06:54;99811.38;;;22.59;100.00
20793;BME280;10556;-33.662;151.094;2023-11-22T09:11:57;99829.03;;;22.56;100.00
20793;BME280;10556;-33.662;151.094;2023-11-22T09:17:01;99814.72;;;22.52;100.00
20793;BME280;10556;-33.662;151.094;2023-11-22T09:22:04;99820.19;;;22.49;100.00
20793;BME280;10556;-33.662;151.094;2023-11-22T09:27:06;99828.53;;;22.43;100.00
20793;BME280;10556;-33.662;151.094;2023-11-22T09:32:13;99823.06;;;22.36;100.00
20793;BME280;10556;-33.662;151.094;2023-11-22T09:37:16;99834.41;;;22.35;100.00
20793;BME280;10556;-33.662;151.094;2023-11-22T09:42:18;99845.22;;;22.31;100.00
20793;BME280;10556;-33.662;151.094;2023-11-22T09:47:23;99858.63;;;22.26;100.00
20793;BME280;10556;-33.662;151.094;2023-11-22T09:52:27;99854.53;;;22.24;100.00
20793;BME280;10556;-33.662;151.094;2023-11-22T09:57:31;99859.03;;;22.22;100.00
20793;BME280;10556;-33.662;151.094;2023-11-22T10:02:36;99864.00;;;22.15;100.00
20793;BME280;10556;-33.662;151.094;2023-11-22T10:07:39;99877.50;;;22.09;100.00
20793;BME280;10556;-33.662;151.094;2023-11-22T10:12:43;99886.66;;;22.03;100.00
20793;BME280;10556;-33.662;151.094;2023-11-22T10:17:58;99883.66;;;21.98;100.00
20793;BME280;10556;-33.662;151.094;2023-11-22T10:23:01;99891.72;;;21.95;100.00
20793;BME280;10556;-33.662;151.094;2023-11-22T10:28:03;99892.22;;;21.89;100.00
20793;BME280;10556;-33.662;151.094;2023-11-22T10:33:10;99905.47;;;21.86;100.00
20793;BME280;10556;-33.662;151.094;2023-11-22T10:38:14;99899.47;;;21.86;100.00
20793;BME280;10556;-33.662;151.094;2023-11-22T10:43:17;99897.81;;;21.85;100.00
20793;BME280;10556;-33.662;151.094;2023-11-22T10:48:22;99887.72;;;21.82;100.00
20793;BME280;10556;-33.662;151.094;2023-11-22T10:53:30;99891.50;;;21.77;100.00
20793;BME280;10556;-33.662;151.094;2023-11-22T10:58:33;99883.47;;;21.71;100.00
20793;BME280;10556;-33.662;151.094;2023-11-22T11:03:40;99882.63;;;21.70;100.00
20793;BME280;10556;-33.662;151.094;2023-11-22T11:08:45;99881.81;;;21.70;100.00
20793;BME280;10556;-33.662;151.094;2023-11-22T11:13:47;99885.94;;;21.72;100.00
20793;BME280;10556;-33.662;151.094;2023-11-22T11:18:53;99888.38;;;21.74;100.00
20793;BME280;10556;-33.662;151.094;2023-11-22T11:23:56;99885.78;;;21.74;100.00
20793;BME280;10556;-33.662;151.094;2023-11-22T11:28:58;99877.44;;;21.70;100.00
20793;BME280;10556;-33.662;151.094;2023-11-22T11:34:05;99869.38;;;21.64;100.00
20793;BME280;10556;-33.662;151.094;2023-11-22T11:39:12;99867.88;;;21.61;100.00
20793;BME280;10556;-33.662;151.094;2023-11-22T11:44:15;99877.56;;;21.59;100.00
20793;BME280;10556;-33.662;151.094;2023-11-22T11:49:19;99878.25;;;21.61;100.00
20793;BME280;10556;-33.662;151.094;2023-11-22T11:54:24;99868.97;;;21.59;100.00
20793;BME280;10556;-33.662;151.094;2023-11-22T11:59:27;99878.66;;;21.57;100.00
20793;BME280;10556;-33.662;151.094;2023-11-22T12:04:31;99876.19;;;21.55;100.00
20793;BME280;10556;-33.662;151.094;2023-11-22T12:09:34;99879.59;;;21.56;100.00
20793;BME280;10556;-33.662;151.094;2023-11-22T12:14:36;99879.59;;;21.56;100.00
20793;BME280;10556;-33.662;151.094;2023-11-22T12:19:41;99887.38;;;21.56;100.00
20793;BME280;10556;-33.662;151.094;2023-11-22T12:24:43;99901.72;;;21.60;100.00
20793;BME280;10556;-33.662;151.094;2023-11-22T12:29:47;99903.78;;;21.56;100.00
20793;BME280;10556;-33.662;151.094;2023-11-22T12:34:51;99898.03;;;21.53;100.00
20793;BME280;10556;-33.662;151.094;2023-11-22T12:39:55;99895.16;;;21.46;100.00
20793;BME280;10556;-33.662;151.094;2023-11-22T12:44:58;99895.66;;;21.40;100.00
20793;BME280;10556;-33.662;151.094;2023-11-22T12:50:02;99899.59;;;21.35;100.00
20793;BME280;10556;-33.662;151.094;2023-11-22T12:55:05;99894.97;;;21.28;100.00
20793;BME280;10556;-33.662;151.094;2023-11-22T13:00:08;99895.22;;;21.25;100.00
20793;BME280;10556;-33.662;151.094;2023-11-22T13:05:12;99887.44;;;21.25;100.00
20793;BME280;10556;-33.662;151.094;2023-11-22T13:10:15;99886.75;;;21.23;100.00
20793;BME280;10556;-33.662;151.094;2023-11-22T13:15:17;99872.28;;;21.21;100.00
20793;BME280;10556;-33.662;151.094;2023-11-22T13:20:22;99844.03;;;21.18;100.00
20793;BME280;10556;-33.662;151.094;2023-11-22T13:25:25;99830.63;;;21.13;100.00
20793;BME280;10556;-33.662;151.094;2023-11-22T13:30:27;99822.28;;;21.09;100.00
20793;BME280;10556;-33.662;151.094;2023-11-22T13:35:32;99805.59;;;21.02;100.00
20793;BME280;10556;-33.662;151.094;2023-11-22T13:40:34;99801.09;;;20.95;100.00
20793;BME280;10556;-33.662;151.094;2023-11-22T13:45:37;99795.59;;;20.88;100.00
20793;BME280;10556;-33.662;151.094;2023-11-22T13:50:42;99804.59;;;20.84;100.00
20793;BME280;10556;-33.662;151.094;2023-11-22T13:55:44;99799.38;;;20.74;100.00
20793;BME280;10556;-33.662;151.094;2023-11-22T14:00:47;99799.66;;;20.71;100.00
20793;BME280;10556;-33.662;151.094;2023-11-22T14:05:51;99789.41;;;20.70;100.00
20793;BME280;10556;-33.662;151.094;2023-11-22T14:10:53;99782.03;;;20.65;100.00
20793;BME280;10556;-33.662;151.094;2023-11-22T14:15:56;99777.78;;;20.64;100.00
20793;BME280;10556;-33.662;151.094;2023-11-22T14:21:00;99785.56;;;20.64;100.00
20793;BME280;10556;-33.662;151.094;2023-11-22T14:26:03;99790.44;;;20.58;100.00
20793;BME280;10556;-33.662;151.094;2023-11-22T14:31:05;99778.97;;;20.51;100.00
20793;BME280;10556;-33.662;151.094;2023-11-22T14:36:10;99755.34;;;20.44;100.00
20793;BME280;10556;-33.662;151.094;2023-11-22T14:41:12;99752.19;;;20.40;100.00
20793;BME280;10556;-33.662;151.094;2023-11-22T14:46:15;99739.38;;;20.39;100.00
20793;BME280;10556;-33.662;151.094;2023-11-22T14:51:19;99735.16;;;20.38;100.00
20793;BME280;10556;-33.662;151.094;2023-11-22T14:56:21;99736.09;;;20.37;100.00
20793;BME280;10556;-33.662;151.094;2023-11-22T15:01:24;99735.41;;;20.35;100.00
20793;BME280;10556;-33.662;151.094;2023-11-22T15:06:28;99716.81;;;20.30;100.00
20793;BME280;10556;-33.662;151.094;2023-11-22T15:11:31;99730.69;;;20.29;100.00
20793;BME280;10556;-33.662;151.094;2023-11-22T15:16:33;99727.31;;;20.28;100.00
20793;BME280;10556;-33.662;151.094;2023-11-22T15:21:38;99719.31;;;20.31;100.00
20793;BME280;10556;-33.662;151.094;2023-11-22T15:26:40;99699.56;;;20.30;100.00
20793;BME280;10556;-33.662;151.094;2023-11-22T15:31:42;99711.63;;;20.30;100.00
20793;BME280;10556;-33.662;151.094;2023-11-22T15:36:47;99701.56;;;20.27;100.00
20793;BME280;10556;-33.662;151.094;2023-11-22T15:41:50;99704.66;;;20.21;100.00
20793;BME280;10556;-33.662;151.094;2023-11-22T15:46:52;99706.81;;;20.16;100.00
20793;BME280;10556;-33.662;151.094;2023-11-22T15:51:56;99708.13;;;20.10;100.00
20793;BME280;10556;-33.662;151.094;2023-11-22T15:56:59;99704.03;;;20.08;100.00
20793;BME280;10556;-33.662;151.094;2023-11-22T16:02:01;99700.63;;;20.07;100.00
20793;BME280;10556;-33.662;151.094;2023-11-22T16:07:06;99701.19;;;20.11;100.00
20793;BME280;10556;-33.662;151.094;2023-11-22T16:12:08;99707.75;;;20.15;100.00
20793;BME280;10556;-33.662;151.094;2023-11-22T16:17:11;99715.28;;;20.18;100.00
20793;BME280;10556;-33.662;151.094;2023-11-22T16:22:15;99717.47;;;20.22;100.00
20793;BME280;10556;-33.662;151.094;2023-11-22T16:27:17;99712.19;;;20.24;100.00
20793;BME280;10556;-33.662;151.094;2023-11-22T16:32:20;99716.25;;;20.26;100.00
20793;BME280;10556;-33.662;151.094;2023-11-22T16:37:24;99712.72;;;20.27;100.00
20793;BME280;10556;-33.662;151.094;2023-11-22T16:42:27;99725.69;;;20.27;100.00
20793;BME280;10556;-33.662;151.094;2023-11-22T16:47:29;99730.97;;;20.26;100.00
20793;BME280;10556;-33.662;151.094;2023-11-22T16:52:34;99730.16;;;20.25;100.00
20793;BME280;10556;-33.662;151.094;2023-11-22T16:57:36;99739.56;;;20.26;100.00
20793;BME280;10556;-33.662;151.094;2023-11-22T17:02:39;99745.28;;;20.30;100.00
20793;BME280;10556;-33.662;151.094;2023-11-22T17:07:47;99731.44;;;20.31;100.00
20793;BME280;10556;-33.662;151.094;2023-11-22T17:12:50;99728.94;;;20.29;100.00
20793;BME280;10556;-33.662;151.094;2023-11-22T17:17:52;99734.94;;;20.30;100.00
20793;BME280;10556;-33.662;151.094;2023-11-22T17:22:57;99732.25;;;20.31;100.00
20793;BME280;10556;-33.662;151.094;2023-11-22T17:27:59;99728.72;;;20.32;100.00
20793;BME280;10556;-33.662;151.094;2023-11-22T17:33:01;99719.31;;;20.31;100.00
20793;BME280;10556;-33.662;151.094;2023-11-22T17:38:06;99706.72;;;20.27;100.00
20793;BME280;10556;-33.662;151.094;2023-11-22T17:43:08;99717.47;;;20.22;100.00
20793;BME280;10556;-33.662;151.094;2023-11-22T17:48:11;99711.75;;;20.19;100.00
20793;BME280;10556;-33.662;151.094;2023-11-22T17:53:15;99709.94;;;20.19;100.00
20793;BME280;10556;-33.662;151.094;2023-11-22T17:58:17;99709.16;;;20.19;100.00
20793;BME280;10556;-33.662;151.094;2023-11-22T18:03:20;99721.81;;;20.22;100.00
20793;BME280;10556;-33.662;151.094;2023-11-22T18:08:24;99733.69;;;20.24;100.00
20793;BME280;10556;-33.662;151.094;2023-11-22T18:13:27;99746.63;;;20.24;100.00
20793;BME280;10556;-33.662;151.094;2023-11-22T18:18:29;99758.63;;;20.25;100.00
20793;BME280;10556;-33.662;151.094;2023-11-22T18:23:33;99756.84;;;20.26;100.00
20793;BME280;10556;-33.662;151.094;2023-11-22T18:28:36;99758.50;;;20.27;100.00
20793;BME280;10556;-33.662;151.094;2023-11-22T18:33:38;99765.31;;;20.28;100.00
20793;BME280;10556;-33.662;151.094;2023-11-22T18:38:42;99770.34;;;20.29;100.00
20793;BME280;10556;-33.662;151.094;2023-11-22T18:43:45;99772.13;;;20.29;100.00
20793;BME280;10556;-33.662;151.094;2023-11-22T18:48:47;99782.47;;;20.29;100.00
20793;BME280;10556;-33.662;151.094;2023-11-22T18:53:52;99788.63;;;20.28;100.00
20793;BME280;10556;-33.662;151.094;2023-11-22T18:58:54;99794.75;;;20.27;100.00
20793;BME280;10556;-33.662;151.094;2023-11-22T19:03:57;99805.34;;;20.24;100.00
20793;BME280;10556;-33.662;151.094;2023-11-22T19:09:01;99813.47;;;20.19;100.00
20793;BME280;10556;-33.662;151.094;2023-11-22T19:14:03;99827.38;;;20.18;100.00
20793;BME280;10556;-33.662;151.094;2023-11-22T19:19:06;99828.31;;;20.17;100.00
20793;BME280;10556;-33.662;151.094;2023-11-22T19:24:10;99828.44;;;20.16;100.00
20793;BME280;10556;-33.662;151.094;2023-11-22T19:29:13;99822.13;;;20.09;100.00
20793;BME280;10556;-33.662;151.094;2023-11-22T19:34:15;99830.84;;;20.08;100.00
20793;BME280;10556;-33.662;151.094;2023-11-22T19:39:20;99836.13;;;20.06;100.00
20793;BME280;10556;-33.662;151.094;2023-11-22T19:44:22;99835.47;;;20.04;100.00
20793;BME280;10556;-33.662;151.094;2023-11-22T19:49:25;99846.75;;;20.03;100.00
20793;BME280;10556;-33.662;151.094;2023-11-22T19:54:29;99848.78;;;19.99;100.00
20793;BME280;10556;-33.662;151.094;2023-11-22T19:59:32;99862.16;;;20.05;100.00
20793;BME280;10556;-33.662;151.094;2023-11-22T20:04:34;99860.13;;;20.08;100.00
20793;BME280;10556;-33.662;151.094;2023-11-22T20:09:39;99863.41;;;20.10;100.00
20793;BME280;10556;-33.662;151.094;2023-11-22T20:14:41;99862.47;;;20.11;100.00
20793;BME280;10556;-33.662;151.094;2023-11-22T20:19:44;99866.81;;;20.11;100.00
20793;BME280;10556;-33.662;151.094;2023-11-22T20:24:48;99874.34;;;20.14;100.00
20793;BME280;10556;-33.662;151.094;2023-11-22T20:29:50;99890.19;;;20.20;100.00
20793;BME280;10556;-33.662;151.094;2023-11-22T20:34:53;99895.81;;;20.25;100.00
20793;BME280;10556;-33.662;151.094;2023-11-22T20:39:57;99887.94;;;20.27;100.00
20793;BME280;10556;-33.662;151.094;2023-11-22T20:45:02;99892.84;;;20.30;100.00
20793;BME280;10556;-33.662;151.094;2023-11-22T20:50:06;99904.75;;;20.32;100.00
20793;BME280;10556;-33.662;151.094;2023-11-22T20:55:10;99909.41;;;20.38;100.00
20793;BME280;10556;-33.662;151.094;2023-11-22T21:00:13;99904.00;;;20.41;100.00
20793;BME280;10556;-33.662;151.094;2023-11-22T21:05:16;99908.09;;;20.44;100.00
20793;BME280;10556;-33.662;151.094;2023-11-22T21:10:20;99915.00;;;20.55;100.00
20793;BME280;10556;-33.662;151.094;2023-11-22T21:15:22;99912.75;;;20.61;100.00
20793;BME280;10556;-33.662;151.094;2023-11-22T21:20:25;99913.41;;;20.63;100.00
20793;BME280;10556;-33.662;151.094;2023-11-22T21:25:29;99920.81;;;20.68;100.00
20793;BME280;10556;-33.662;151.094;2023-11-22T21:30:32;99921.69;;;20.78;100.00
20793;BME280;10556;-33.662;151.094;2023-11-22T21:35:34;99925.44;;;20.85;100.00
20793;BME280;10556;-33.662;151.094;2023-11-22T21:40:38;99925.97;;;20.88;100.00
20793;BME280;10556;-33.662;151.094;2023-11-22T21:45:41;99932.81;;;20.89;100.00
20793;BME280;10556;-33.662;151.094;2023-11-22T21:50:43;99944.69;;;20.92;100.00
20793;BME280;10556;-33.662;151.094;2023-11-22T21:55:47;99956.31;;;20.98;100.00
20793;BME280;10556;-33.662;151.094;2023-11-22T22:00:50;99958.53;;;21.02;100.00
20793;BME280;10556;-33.662;151.094;2023-11-22T22:05:52;99956.31;;;20.98;100.00
20793;BME280;10556;-33.662;151.094;2023-11-22T22:10:58;99954.66;;;20.97;100.00
20793;BME280;10556;-33.662;151.094;2023-11-22T22:16:01;99954.81;;;20.95;100.00
20793;BME280;10556;-33.662;151.094;2023-11-22T22:21:03;99956.56;;;20.95;100.00
20793;BME280;10556;-33.662;151.094;2023-11-22T22:26:08;99955.09;;;21.02;100.00
20793;BME280;10556;-33.662;151.094;2023-11-22T22:31:10;99957.38;;;21.16;100.00
20793;BME280;10556;-33.662;151.094;2023-11-22T22:36:16;99952.94;;;21.27;100.00
20793;BME280;10556;-33.662;151.094;2023-11-22T22:41:21;99946.44;;;21.33;100.00
20793;BME280;10556;-33.662;151.094;2023-11-22T22:46:24;99946.97;;;21.37;100.00
20793;BME280;10556;-33.662;151.094;2023-11-22T22:51:26;99949.16;;;21.31;100.00
20793;BME280;10556;-33.662;151.094;2023-11-22T22:56:30;99957.88;;;21.30;100.00
20793;BME280;10556;-33.662;151.094;2023-11-22T23:01:33;99949.47;;;21.38;100.00
20793;BME280;10556;-33.662;151.094;2023-11-22T23:06:35;99957.31;;;21.57;100.00
20793;BME280;10556;-33.662;151.094;2023-11-22T23:11:39;99962.16;;;21.81;100.00
20793;BME280;10556;-33.662;151.094;2023-11-22T23:16:42;99963.03;;;22.01;100.00
20793;BME280;10556;-33.662;151.094;2023-11-22T23:21:44;99967.84;;;22.15;100.00
20793;BME280;10556;-33.662;151.094;2023-11-22T23:26:48;99971.81;;;22.19;100.00
20793;BME280;10556;-33.662;151.094;2023-11-22T23:31:51;99978.78;;;22.28;100.00
20793;BME280;10556;-33.662;151.094;2023-11-22T23:36:54;99980.69;;;22.36;100.00
20793;BME280;10556;-33.662;151.094;2023-11-22T23:41:58;99988.34;;;22.37;100.00
20793;BME280;10556;-33.662;151.094;2023-11-22T23:47:00;99996.56;;;22.33;100.00
20793;BME280;10556;-33.662;151.094;2023-11-22T23:52:03;99988.75;;;22.33;100.00
20793;BME280;10556;-33.662;151.094;2023-11-22T23:57:07;99983.56;;;22.33;100.00
